Latest Weather Observations for Beaudesert AWS

IDQ60901

Issued at 9:11 pm EST Wednesday 25 May 2016 (issued every 10 minutes, with the page automatically refreshed every 10 minutes)

About weather observations | Map of Brisbane area stations | Latest observations for Brisbane area | Other Formats
Station Details ID: 040983 Name: BEAUDESERT DRUMLEY STREET Lat: -27.97 Lon: 152.99 Height: 47.81 m
Data from the previous 72 hours. | See also: Recent months at Beaudesert AWS
Date/Time
EST
Tmp

°C
App
Tmp
°C
Dew
Point
°C
Rel
Hum
%
Delta-T

°C
Wind Press
QNH
hPa
Press
MSL
hPa
Rain
since
9 am
mm
Dir
 
Spd
km/h
Gust
km/h
Spd
kts
Gust
kts
25/09:00pm 8.2 7.0 4.8 79 1.5 CALM 0 0 0 0 1017.5 1017.4 0.0
25/08:30pm 8.7 7.6 4.9 77 1.7 CALM 0 0 0 0 1017.2 1017.1 0.0
25/08:00pm 9.8 8.6 4.6 70 2.3 CALM 0 4 0 2 1017.2 1017.1 0.0
25/07:30pm 11.7 10.7 5.6 66 2.8 CALM 0 0 0 0 1017.0 1016.9 0.0
25/07:00pm 13.4 12.4 5.6 59 3.7 CALM 0 0 0 0 1016.8 1016.7 0.0
25/06:30pm 14.5 13.4 5.3 54 4.3 CALM 0 0 0 0 1016.3 1016.2 0.0
25/06:00pm 16.6 15.0 4.3 44 5.8 ENE 2 6 1 3 1015.9 1015.8 0.0
25/05:30pm 18.9 16.3 4.3 38 7.0 ENE 7 11 4 6 1015.6 1015.5 0.0
25/05:00pm 21.0 18.3 2.8 30 8.6 NE 6 13 3 7 1015.3 1015.2 0.0
25/04:30pm 23.4 20.0 1.7 24 10.2 NE 9 17 5 9 1014.9 1014.8 0.0
25/04:00pm 24.9 21.3 -1.8 17 11.9 NNE 7 15 4 8 1014.8 1014.7 0.0
25/03:30pm 25.8 22.0 -3.7 14 12.8 N 7 13 4 7 1014.9 1014.8 0.0
25/03:00pm 25.9 21.9 -5.6 12 13.2 NNE 7 13 4 7 1014.8 1014.7 0.0
25/02:30pm 25.9 21.7 -3.6 14 12.8 N 9 15 5 8 1014.9 1014.8 0.0
25/02:00pm 26.1 22.6 -2.5 15 12.7 N 6 13 3 7 1015.2 1015.1 0.0
25/01:30pm 25.9 22.3 -3.6 14 12.8 N 6 11 3 6 1015.6 1015.5 0.0
25/01:00pm 25.7 22.3 -2.0 16 12.4 N 6 9 3 5 1016.0 1015.9 0.0
25/12:30pm 24.3 20.9 -0.8 19 11.3 NW 7 13 4 7 1016.3 1016.2 0.0
25/12:00pm 24.6 21.9 0.2 20 11.2 N 4 9 2 5 1016.7 1016.6 0.0
25/11:30am 22.6 19.9 0.4 23 10.1 WNW 4 7 2 4 1017.0 1016.9 0.0
25/11:00am 21.1 18.5 0.9 26 9.2 WNW 4 6 2 3 1017.5 1017.4 0.0
25/10:30am 19.4 17.4 2.3 32 7.9 WNW 2 6 1 3 1017.9 1017.8 0.0
25/10:00am 17.0 15.8 6.5 50 5.2 WNW 2 4 1 2 1018.2 1018.1 0.0
25/09:30am 14.5 13.9 7.3 62 3.5 CALM 0 2 0 1 1018.4 1018.4 0.0
25/09:00am 11.1 9.9 6.6 74 2.1 W 2 4 1 2 1018.5 1018.5 0.0
25/08:30am 8.7 7.8 6.0 83 1.2 CALM 0 4 0 2 1018.5 1018.5 0.0
25/08:00am 7.7 6.4 6.0 89 0.8 SE 2 6 1 3 1018.5 1018.5 0.0
25/07:30am 4.8 2.9 4.7 99 0.0 ESE 4 6 2 3 1018.1 1018.0 0.0
25/07:00am 3.5 1.7 3.4 99 0.0 SSW 2 6 1 3 1018.0 1017.9 0.0
25/06:30am 2.9 1.4 2.8 99 0.0 CALM 0 0 0 0 1017.8 1017.7 0.0
25/06:00am 2.1 0.3 1.2 94 0.3 CALM 0 2 0 1 1017.7 1017.6 0.0
25/05:30am 3.4 1.8 2.7 95 0.3 CALM 0 0 0 0 1017.5 1017.4 0.0
25/05:00am 4.1 2.4 3.8 98 0.1 E 2 6 1 3 1017.3 1017.2 0.0
25/04:30am 3.1 1.0 1.9 92 0.5 SW 2 6 1 3 1017.1 1017.0 0.0
25/04:00am 5.2 3.6 4.5 95 0.3 ESE 2 4 1 2 1017.0 1016.9 0.0
25/03:30am 5.5 4.0 4.9 96 0.3 SE 2 4 1 2 1017.0 1016.9 0.0
25/03:00am 5.8 4.7 5.2 96 0.3 CALM 0 0 0 0 1017.0 1016.9 0.0
25/02:30am 4.9 3.6 3.9 93 0.4 CALM 0 0 0 0 1017.0 1016.9 0.0
25/02:00am 5.8 4.4 3.8 87 0.8 CALM 0 2 0 1 1017.1 1017.0 0.0
25/01:30am 7.6 6.2 5.4 86 1.0 S 2 6 1 3 1017.3 1017.2 0.0
25/01:00am 7.5 5.9 6.3 92 0.5 ESE 4 6 2 3 1017.6 1017.5 0.0
25/12:30am 6.8 5.6 4.6 86 1.0 CALM 0 0 0 0 1017.7 1017.6 0.0
25/12:00am 8.8 7.1 6.1 83 1.2 SSE 4 6 2 3 1017.9 1017.8 0.0
 
Date/Time
EST
Tmp

°C
App
Tmp
°C
Dew
Point
°C
Rel
Hum
%
Delta-T

°C
Wind Press
QNH
hPa
Press
MSL
hPa
Rain
since
9 am
mm
Dir
 
Spd
km/h
Gust
km/h
Spd
kts
Gust
kts
24/11:30pm 9.3 8.0 6.2 81 1.4 SE 2 6 1 3 1018.0 1017.9 0.0
24/11:00pm 10.0 8.7 7.6 85 1.1 SSE 4 6 2 3 1018.0 1017.9 0.0
24/10:30pm 9.5 9.0 7.9 90 0.8 CALM 0 0 0 0 1017.9 1017.8 0.0
24/10:00pm 8.8 7.7 6.9 88 0.9 S 2 6 1 3 1017.8 1017.7 0.0
24/09:30pm 8.5 7.6 6.1 85 1.1 CALM 0 0 0 0 1017.9 1017.8 0.0
24/09:00pm 9.6 8.9 6.9 83 1.3 CALM 0 2 0 1 1017.7 1017.6 0.0
24/08:30pm 11.6 11.2 8.1 79 1.7 CALM 0 0 0 0 1017.7 1017.6 0.0
24/08:00pm 13.3 12.5 8.0 70 2.6 ENE 2 4 1 2 1017.6 1017.5 0.0
24/07:30pm 15.1 13.7 8.8 66 3.2 ENE 6 6 3 3 1017.3 1017.2 0.0
24/07:00pm 14.9 14.0 7.9 63 3.5 SW 2 4 1 2 1017.1 1017.0 0.0
24/06:30pm 17.0 16.7 8.7 58 4.3 CALM 0 0 0 0 1016.5 1016.4 0.0
24/06:00pm 17.5 16.5 7.5 52 5.0 WSW 2 4 1 2 1016.1 1016.0 0.0
24/05:30pm 20.2 18.6 8.2 46 6.2 NE 6 9 3 5 1015.6 1015.5 0.0
24/05:00pm 22.0 19.6 8.5 42 7.1 NNE 11 19 6 10 1015.4 1015.3 0.0
24/04:30pm 23.8 21.6 7.8 36 8.4 NE 9 13 5 7 1014.9 1014.8 0.0
24/04:00pm 26.4 23.8 -1.4 16 12.6 E 2 6 1 3 1014.5 1014.4 0.0
24/03:30pm 27.9 25.9 2.2 19 12.6 NNW 2 4 1 2 1014.6 1014.5 0.0
24/03:00pm 26.6 23.8 -0.4 17 12.5 SE 4 6 2 3 1014.5 1014.4 0.0
24/02:30pm 26.6 23.3 -1.3 16 12.7 SSE 6 17 3 9 1014.6 1014.5 0.0
24/02:00pm 26.0 23.0 -1.7 16 12.5 SSE 4 9 2 5 1014.6 1014.5 0.0
24/01:30pm 26.4 24.0 -0.6 17 12.4 NNE 2 4 1 2 1014.8 1014.7 0.0
24/01:00pm 25.9 22.9 0.5 19 11.9 SW 6 11 3 6 1015.0 1014.9 0.0
24/12:30pm 25.4 22.6 2.2 22 11.2 SSW 6 15 3 8 1015.4 1015.3 0.0
24/12:00pm 24.8 21.8 4.0 26 10.3 WSW 9 17 5 9 1015.8 1015.7 0.0
24/11:30am 24.7 21.5 5.0 28 9.9 SW 11 17 6 9 1016.5 1016.4 0.0
24/11:00am 24.2 20.8 6.0 31 9.3 SW 13 19 7 10 1017.2 1017.1 0.0
24/10:30am 23.6 20.6 7.7 36 8.4 SW 13 22 7 12 1017.7 1017.6 0.0
24/10:00am 22.8 20.5 10.3 45 6.8 SW 13 19 7 10 1018.1 1018.0 0.0
24/09:30am 20.9 22.0 13.6 63 4.2 CALM 0 0 0 0 1018.3 1018.2 0.0
24/09:00am 18.3 19.3 14.2 77 2.4 SSW 2 6 1 3 1018.2 1018.1 0.0
24/08:30am 15.3 16.4 13.5 89 1.0 CALM 0 4 0 2 1017.9 1017.8 0.0
24/08:00am 13.7 14.7 13.1 96 0.3 CALM 0 0 0 0 1017.8 1017.7 0.0
24/07:30am 11.1 11.4 10.9 99 0.1 CALM 0 0 0 0 1017.5 1017.4 0.0
24/07:00am 10.2 9.9 10.1 99 0.1 E 2 4 1 2 1017.3 1017.2 0.0
24/06:30am 10.0 9.8 9.2 95 0.4 CALM 0 0 0 0 1017.0 1016.9 0.0
24/06:00am 11.0 11.2 10.5 97 0.3 CALM 0 4 0 2 1016.6 1016.5 0.0
24/05:30am 11.8 11.5 11.5 98 0.2 ESE 4 6 2 3 1016.4 1016.3 0.0
24/05:00am 11.8 11.9 11.5 98 0.2 SE 2 4 1 2 1016.2 1016.1 0.0
24/04:30am 11.4 11.7 10.8 96 0.3 CALM 0 0 0 0 1016.2 1016.1 0.0
24/04:00am 12.4 13.1 12.2 99 0.1 CALM 0 0 0 0 1016.1 1016.0 0.0
24/03:30am 11.4 11.6 10.5 94 0.5 CALM 0 0 0 0 1016.3 1016.2 0.0
24/03:00am 12.6 12.8 12.0 96 0.3 E 2 2 1 1 1016.2 1016.1 0.0
24/02:30am 12.9 13.1 12.0 94 0.5 SSE 2 4 1 2 1016.4 1016.3 0.0
24/02:00am 13.8 14.4 13.0 95 0.4 SSE 2 4 1 2 1016.4 1016.3 0.0
24/01:30am 14.1 15.1 13.3 95 0.4 CALM 0 2 0 1 1016.4 1016.3 0.0
24/01:00am 14.1 15.2 13.5 96 0.3 CALM 0 0 0 0 1016.4 1016.3 0.0
24/12:30am 14.4 15.6 13.8 96 0.3 CALM 0 0 0 0 1016.3 1016.2 0.0
24/12:00am 14.1 15.0 13.0 93 0.6 CALM 0 0 0 0 1016.5 1016.4 0.0
 
Date/Time
EST
Tmp

°C
App
Tmp
°C
Dew
Point
°C
Rel
Hum
%
Delta-T

°C
Wind Press
QNH
hPa
Press
MSL
hPa
Rain
since
9 am
mm
Dir
 
Spd
km/h
Gust
km/h
Spd
kts
Gust
kts
23/11:30pm 14.3 15.4 13.5 95 0.4 CALM 0 0 0 0 1016.7 1016.6 0.0
23/11:00pm 14.2 15.1 12.9 92 0.7 CALM 0 0 0 0 1016.7 1016.6 0.0
23/10:30pm 14.7 15.7 13.2 91 0.8 CALM 0 0 0 0 1016.9 1016.8 0.0
23/10:00pm 15.1 16.1 13.3 89 1.0 CALM 0 0 0 0 1016.9 1016.8 0.0
23/09:30pm 16.0 17.1 13.5 85 1.4 CALM 0 0 0 0 1016.8 1016.7 0.0
23/09:00pm 17.4 18.8 14.5 83 1.7 CALM 0 0 0 0 1016.8 1016.7 0.0
23/08:30pm 18.4 19.3 15.1 81 1.9 E 4 6 2 3 1016.6 1016.5 0.0
23/08:00pm 19.1 20.4 15.2 78 2.3 E 2 4 1 2 1016.9 1016.8 0.0
23/07:30pm 20.1 21.5 15.3 74 2.8 ENE 2 4 1 2 1016.7 1016.6 0.0
23/07:00pm 21.2 22.2 15.3 69 3.5 N 4 7 2 4 1016.3 1016.2 0.0
23/06:30pm 22.1 22.7 15.2 65 4.1 N 6 11 3 6 1015.9 1015.8 0.0
23/06:00pm 22.0 21.9 13.4 58 5.0 NE 6 7 3 4 1015.4 1015.3 0.0
23/05:30pm 22.7 22.9 12.9 54 5.6 NNE 4 6 2 3 1015.1 1015.0 0.0
23/05:00pm 24.8 25.0 13.0 47 6.8 NNW 4 6 2 3 1014.9 1014.8 0.0
23/04:30pm 26.7 26.4 13.4 43 7.8 NW 7 13 4 7 1014.7 1014.6 0.0
23/04:00pm 27.2 27.0 13.5 42 8.1 NW 7 13 4 7 1014.7 1014.6 0.0
23/03:30pm 27.9 27.4 13.8 42 8.4 WNW 9 20 5 11 1014.4 1014.3 0.0
23/03:00pm 26.6 26.4 13.7 45 7.6 NW 7 17 4 9 1014.5 1014.4 0.0
23/02:30pm 28.0 27.8 13.5 41 8.6 WNW 7 20 4 11 1014.6 1014.5 0.0
23/02:00pm 27.5 26.9 13.4 41 8.3 W 9 17 5 9 1015.1 1015.0 0.0
23/01:30pm 27.1 26.3 14.1 44 7.8 WNW 11 17 6 9 1015.5 1015.4 0.0
23/01:00pm 26.6 26.5 14.0 46 7.5 NW 7 22 4 12 1015.7 1015.6 0.0
23/12:30pm 26.4 27.1 14.5 48 7.1 NNE 4 11 2 6 1016.5 1016.4 0.0
23/12:00pm 25.6 26.2 15.3 53 6.2 N 6 13 3 7 1017.4 1017.3 0.0
23/11:30am 24.9 26.2 15.2 54 5.8 NW 2 6 1 3 1018.2 1018.1 0.0
23/11:00am 23.9 24.4 14.9 57 5.4 WNW 6 13 3 7 1019.0 1019.0 0.0
23/10:30am 22.5 23.3 14.9 62 4.5 NNW 4 11 2 6 1019.7 1019.7 0.0
23/10:00am 21.1 22.7 15.0 68 3.6 CALM 0 2 0 1 1020.2 1020.2 0.0
23/09:30am 19.9 21.7 15.5 76 2.6 CALM 0 0 0 0 1020.7 1020.7 0.0
23/09:00am 16.3 17.3 14.3 88 1.1 SW 2 4 1 2 1021.1 1021.1 0.0
23/08:30am 14.0 15.2 13.7 98 0.2 CALM 0 0 0 0 1021.2 1021.2 0.0
23/08:00am 11.9 12.4 11.7 99 0.1 CALM 0 0 0 0 1021.1 1021.1 0.0
23/07:30am 10.7 10.9 10.5 99 0.1 CALM 0 0 0 0 1021.0 1021.0 0.0
23/07:00am 9.5 9.4 9.4 99 0.0 CALM 0 0 0 0 1021.0 1021.0 0.0
23/06:30am 9.2 8.5 8.7 97 0.2 SSW 2 4 1 2 1021.1 1021.1 0.0
23/06:00am 11.0 10.9 10.8 99 0.1 SE 2 4 1 2 1020.6 1020.6 0.0
23/05:30am 9.8 9.3 9.5 98 0.1 SE 2 4 1 2 1020.5 1020.5 0.0
23/05:00am 10.4 10.4 9.9 97 0.3 CALM 0 2 0 1 1020.4 1020.4 0.0
23/04:30am 11.1 11.4 10.8 98 0.2 CALM 0 0 0 0 1020.5 1020.5 0.0
23/04:00am 11.5 11.9 11.3 99 0.1 CALM 0 0 0 0 1020.5 1020.5 0.0
23/03:30am 11.7 12.1 11.4 98 0.2 CALM 0 0 0 0 1020.4 1020.4 0.0
23/03:00am 11.9 12.3 11.4 97 0.3 CALM 0 0 0 0 1020.5 1020.5 0.0
23/02:30am 12.1 12.6 11.6 97 0.3 CALM 0 0 0 0 1020.7 1020.7 0.0
23/02:00am 12.8 13.5 12.2 96 0.3 CALM 0 0 0 0 1021.1 1021.1 0.0
23/01:30am 13.3 14.1 12.7 96 0.3 CALM 0 0 0 0 1021.3 1021.3 0.0
23/01:00am 13.2 13.7 12.9 98 0.2 SE 2 4 1 2 1021.4 1021.4 0.0
23/12:30am 12.6 13.3 12.3 98 0.2 CALM 0 0 0 0 1021.7 1021.7 0.0
23/12:00am 12.5 13.2 12.2 98 0.2 CALM 0 0 0 0 1021.9 1021.9 0.0
 
Date/Time
EST
Tmp

°C
App
Tmp
°C
Dew
Point
°C
Rel
Hum
%
Delta-T

°C
Wind Press
QNH
hPa
Press
MSL
hPa
Rain
since
9 am
mm
Dir
 
Spd
km/h
Gust
km/h
Spd
kts
Gust
kts
22/11:30pm 11.8 12.2 11.3 97 0.3 CALM 0 0 0 0 1021.8 1021.8 0.0
22/11:00pm 11.8 12.1 11.0 95 0.4 CALM 0 2 0 1 1021.9 1021.9 0.0
22/10:30pm 11.8 12.0 10.5 92 0.7 CALM 0 0 0 0 1022.1 1022.1 0.0
22/10:00pm 12.4 12.7 11.0 91 0.7 CALM 0 0 0 0 1022.1 1022.1 0.0
22/09:30pm 13.9 14.4 12.8 93 0.6 SSE 2 4 1 2 1022.3 1022.3 0.0

Latest Capital City Observations: Canberra | Sydney | Melbourne | Brisbane | Adelaide | Perth | Hobart | Darwin

Other Formats:

Comma delimited format used in spreadsheet applications
http://www.bom.gov.au/fwo/IDQ60901/IDQ60901.95575.axf

JavaScript Object Notation format (JSON) in row-major order
http://www.bom.gov.au/fwo/IDQ60901/IDQ60901.95575.json